Terminal Aerodrome Forecast
Issued by NWS Binghamton, NY

Home | Current Version | Previous Version | Text Only | Print | Product List | Glossary On
Versions: 1 2 3 4 5 6 7 8 9 10 11 12 13 14 15 16 17 18 19 20 21 22 23 24
000
FTUS41 KBGM 251244 AAA
TAFBGM
TAF AMD
KBGM 251244Z 2513/2612 06005KT 3/4SM BR OVC008
      TEMPO 2513/2516 1/4SM -DZ FG VV002
     FM251700 VRB05KT 3SM -SHRA BR OVC008
     FM260000 09005KT 5SM BR OVC008=

USA.gov is the U.S. government's official web portal to all federal, state and local government web resources and services.